CheckWX is a tool to help pilots better visualize weather data.  It is not intended as a substitute for an official pre-flight weather briefing.

11:03:41 UTC

KTKC METAR
Tracy Municipal Airport
Tracy, Minnesota, USA
Current

1 hour ago

KTKC 170959Z AUTO 18011G16KT 10SM VCTS CLR 23/21 A2989 RMK AO2 LTG DSNT NW THRU NE
Observed
Sep-17 @ 09:59 UTC
Wind
  • 180° at 11 KTS
  • Gusting to 16 KTS
Visibility
10 SM
Flight Rules
VFR
Conditions
Area Thunderstorm
Cloud Levels
  • Clear skies
Temperature
23°C / 73°F
Dewpoint
21°C / 70°F
Humidity
89%
Altimeter
29.89" Hg
Pressure
1012.22 hPa
Previous

2 hours ago

KTKC 170859Z AUTO 17011G18KT 10SM VCTS CLR 23/21 A2990 RMK AO2 LTG DSNT N AND NW
Observed
Sep-17 @ 08:59 UTC
Wind
  • 170° at 11 KTS
  • Gusting to 18 KTS
Visibility
10 SM
Flight Rules
VFR
Conditions
Area Thunderstorm
Cloud Levels
  • Clear skies
Temperature
23°C / 73°F
Dewpoint
21°C / 70°F
Humidity
89%
Altimeter
29.9" Hg
Pressure
1012.52 hPa
Previous

3 hours ago

KTKC 170759Z AUTO 17011G18KT 10SM TS CLR 24/21 A2991 RMK AO2 LTG DSNT W AND NW
Observed
Sep-17 @ 07:59 UTC
Wind
  • 170° at 11 KTS
  • Gusting to 18 KTS
Visibility
10 SM
Flight Rules
VFR
Conditions
Thunderstorm
Cloud Levels
  • Clear skies
Temperature
24°C / 75°F
Dewpoint
21°C / 70°F
Humidity
83%
Altimeter
29.91" Hg
Pressure
1012.92 hPa